Time;durP1;ratioP1;P1;durP2;ratioP2;P2;SDS_P1;SDS_P2;PMS_P1;PMS_P2;Temp;Humidity;BMP_temperature;BMP_pressure;BME280_temperature;BME280_humidity;BME280_pressure;Samples;Min_cycle;Max_cycle;Signal;HPM_P1;HPM_P2
2022/09/16 00:01:13;;;;;;;0.17;0.17;;;;;;;7.87;94.85;98345.13;5006085;28;20061;-65
2022/09/16 00:03:39;;;;;;;0.22;0.17;;;;;;;7.85;94.97;98348.13;5005280;28;20064;-66
2022/09/16 00:06:06;;;;;;;0.10;0.10;;;;;;;7.85;95.21;98350.84;5002042;28;20050;-66
2022/09/16 00:08:32;;;;;;;0.08;0.08;;;;;;;7.89;95.11;98354.63;5001975;28;20304;-66
2022/09/16 00:11:00;;;;;;;0.10;0.10;;;;;;;7.97;95.74;98355.06;4985780;28;20056;-66
2022/09/16 00:13:26;;;;;;;0.63;0.17;;;;;;;8.12;95.78;98345.84;4985288;28;20053;-63
2022/09/16 00:15:52;;;;;;;0.10;0.10;;;;;;;8.28;95.27;98352.72;5002147;28;20068;-65
2022/09/16 00:18:19;;;;;;;0.10;0.10;;;;;;;8.40;94.69;98346.81;5002089;28;20042;-66
2022/09/16 00:20:46;;;;;;;0.60;0.20;;;;;;;8.43;93.85;98334.50;5002941;28;20045;-65
2022/09/16 00:23:12;;;;;;;0.10;0.10;;;;;;;8.38;93.54;98327.25;5001798;28;20077;-65
2022/09/16 00:25:38;;;;;;;0.38;0.17;;;;;;;8.32;93.11;98329.22;5004009;28;20046;-64
2022/09/16 00:28:05;;;;;;;0.10;0.10;;;;;;;8.29;93.27;98329.84;5002457;28;20086;-64
2022/09/16 00:30:31;;;;;;;0.10;0.10;;;;;;;8.31;93.24;98338.50;5004412;28;20075;-64
2022/09/16 00:32:57;;;;;;;0.15;0.15;;;;;;;8.32;93.11;98345.56;4987363;28;20509;-64
2022/09/16 00:35:23;;;;;;;0.10;0.10;;;;;;;8.33;92.81;98335.47;5003019;28;20049;-64
2022/09/16 00:37:49;;;;;;;0.25;0.15;;;;;;;8.31;92.93;98334.97;5002129;28;20461;-65
2022/09/16 00:40:16;;;;;;;0.10;0.10;;;;;;;8.41;92.70;98345.72;4984501;28;20077;-65
2022/09/16 00:42:42;;;;;;;0.82;0.22;;;;;;;8.46;92.50;98347.56;4984946;28;20042;-66
2022/09/16 00:45:16;;;;;;;0.10;0.10;;;;;;;8.47;92.28;98352.69;5002247;28;20472;-67
2022/09/16 00:47:46;;;;;;;0.10;0.10;;;;;;;8.53;92.35;98356.19;5005681;28;20521;-65
2022/09/16 00:50:17;;;;;;;0.22;0.20;;;;;;;8.60;92.12;98351.19;5005335;28;20069;-64
2022/09/16 00:52:43;;;;;;;0.10;0.10;;;;;;;8.68;91.90;98357.88;5004654;28;20785;-64
2022/09/16 00:55:14;;;;;;;0.10;0.10;;;;;;;8.76;91.71;98351.72;5005869;28;20090;-65
2022/09/16 00:57:41;;;;;;;0.10;0.10;;;;;;;8.77;91.50;98358.00;4987084;28;20050;-65
2022/09/16 01:00:12;;;;;;;0.10;0.10;;;;;;;8.77;91.16;98345.16;5006026;28;20049;-65
2022/09/16 01:02:41;;;;;;;0.10;0.10;;;;;;;8.81;91.09;98345.38;5005777;28;20133;-65
2022/09/16 01:05:11;;;;;;;0.10;0.10;;;;;;;8.78;91.04;98352.22;4989268;28;20080;-67
2022/09/16 01:07:40;;;;;;;0.13;0.13;;;;;;;8.77;90.91;98345.16;4987660;28;20683;-64
2022/09/16 01:10:07;;;;;;;0.10;0.10;;;;;;;8.74;90.97;98342.22;5005649;28;20038;-66
2022/09/16 01:12:35;;;;;;;0.10;0.10;;;;;;;8.74;91.11;98331.31;4970403;28;20092;-64
2022/09/16 01:15:02;;;;;;;0.17;0.17;;;;;;;8.75;91.20;98330.22;5005610;28;20052;-66
2022/09/16 01:17:46;;;;;;;0.10;0.10;;;;;;;8.72;90.85;98331.63;4987020;28;20486;-66
2022/09/16 01:20:35;;;;;;;0.45;0.10;;;;;;;8.61;90.72;98327.44;5005536;28;20049;-66
2022/09/16 01:23:35;;;;;;;0.10;0.10;;;;;;;8.44;91.09;98323.31;4987673;28;20513;-65
2022/09/16 01:26:17;;;;;;;0.10;0.10;;;;;;;8.29;91.43;98327.13;5001804;28;20085;-66
2022/09/16 01:29:15;;;;;;;0.10;0.10;;;;;;;8.05;91.94;98302.69;5004308;28;20501;-65
2022/09/16 01:31:49;;;;;;;0.10;0.10;;;;;;;8.09;92.58;98329.00;4998931;28;20062;-66
2022/09/16 01:34:25;;;;;;;0.20;0.20;;;;;;;8.04;92.86;98320.94;5004324;28;20529;-66
2022/09/16 01:37:01;;;;;;;0.55;0.20;;;;;;;8.00;93.18;98325.34;5003770;28;20054;-66
2022/09/16 01:39:34;;;;;;;0.13;0.13;;;;;;;7.98;93.45;98324.84;5003630;28;20053;-66
2022/09/16 01:42:16;;;;;;;0.10;0.10;;;;;;;8.02;93.91;98327.75;5005247;28;20152;-66
2022/09/16 01:44:50;;;;;;;0.10;0.10;;;;;;;8.09;94.01;98322.78;5006898;28;20050;-66
2022/09/16 01:47:24;;;;;;;0.10;0.10;;;;;;;8.15;94.14;98327.03;4987024;28;20576;-67
2022/09/16 01:50:00;;;;;;;0.10;0.10;;;;;;;8.24;94.00;98324.44;5004369;28;20073;-64
2022/09/16 01:52:38;;;;;;;0.10;0.10;;;;;;;8.30;93.90;98328.72;5003750;28;20116;-64
2022/09/16 01:55:07;;;;;;;0.10;0.10;;;;;;;8.40;93.56;98322.31;4986707;28;20068;-63
2022/09/16 01:57:37;;;;;;;0.10;0.10;;;;;;;8.50;93.27;98318.63;4971025;28;20070;-64
2022/09/16 02:00:09;;;;;;;0.10;0.10;;;;;;;8.56;93.09;98330.28;5003740;28;20046;-64
2022/09/16 02:02:42;;;;;;;0.10;0.10;;;;;;;8.59;92.33;98318.78;4987220;28;20046;-64
2022/09/16 02:05:13;;;;;;;0.10;0.10;;;;;;;8.43;92.35;98293.66;5002201;28;20065;-67
2022/09/16 02:07:50;;;;;;;0.10;0.10;;;;;;;8.61;92.15;98322.00;5004165;28;20513;-65
2022/09/16 02:10:22;;;;;;;0.52;0.20;;;;;;;8.67;92.07;98326.28;4991706;28;20042;-66
2022/09/16 02:12:51;;;;;;;0.10;0.10;;;;;;;8.74;91.92;98315.78;5003623;28;20141;-65
2022/09/16 02:15:21;;;;;;;0.17;0.17;;;;;;;8.84;91.50;98311.28;4986392;28;20148;-66
2022/09/16 02:17:54;;;;;;;0.13;0.13;;;;;;;8.88;91.05;98310.34;5003183;28;20049;-66
2022/09/16 02:20:26;;;;;;;0.20;0.10;;;;;;;8.90;90.65;98318.25;5003368;28;20061;-66
2022/09/16 02:22:57;;;;;;;0.10;0.10;;;;;;;8.90;90.64;98316.34;4970281;28;20396;-67
2022/09/16 02:25:25;;;;;;;0.10;0.10;;;;;;;8.92;90.51;98311.41;5002943;28;20079;-65
2022/09/16 02:27:52;;;;;;;0.10;0.10;;;;;;;8.95;90.51;98309.97;5006267;28;20050;-65
2022/09/16 02:30:21;;;;;;;0.10;0.10;;;;;;;8.97;90.72;98318.66;5004165;28;20128;-66
2022/09/16 02:32:54;;;;;;;0.10;0.10;;;;;;;9.00;90.51;98325.44;5005532;28;20103;-65
2022/09/16 02:35:25;;;;;;;0.10;0.10;;;;;;;9.01;90.40;98325.13;4969787;28;20116;-65
2022/09/16 02:37:56;;;;;;;0.10;0.10;;;;;;;9.02;90.25;98315.84;5005690;28;20072;-66
2022/09/16 02:40:27;;;;;;;0.10;0.10;;;;;;;8.98;90.14;98308.56;5003233;28;20052;-66
2022/09/16 02:42:55;;;;;;;0.10;0.10;;;;;;;9.03;90.17;98309.28;5003077;28;20549;-66
2022/09/16 02:45:31;;;;;;;0.10;0.10;;;;;;;9.06;90.00;98308.69;5002608;28;20054;-67
2022/09/16 02:48:12;;;;;;;0.10;0.10;;;;;;;9.06;90.21;98302.44;5009326;28;20074;-64
2022/09/16 02:50:46;;;;;;;0.10;0.10;;;;;;;9.06;89.92;98311.41;4967151;28;20100;-64
2022/09/16 02:53:22;;;;;;;0.10;0.10;;;;;;;9.07;89.69;98306.78;5004568;28;20046;-64
2022/09/16 02:55:52;;;;;;;0.10;0.10;;;;;;;9.06;89.63;98303.22;4987590;28;20045;-64
2022/09/16 02:58:19;;;;;;;0.25;0.10;;;;;;;9.05;89.71;98309.78;4987600;28;20050;-66
2022/09/16 03:00:48;;;;;;;0.20;0.20;;;;;;;9.04;89.80;98308.19;5005900;28;20054;-66
2022/09/16 03:03:16;;;;;;;0.10;0.10;;;;;;;9.05;89.72;98296.16;5006184;28;20547;-67
2022/09/16 03:05:59;;;;;;;;;;;;;;;9.07;89.54;98293.94;5001651;28;20513;-66
2022/09/16 03:08:25;;;;;;;0.10;0.10;;;;;;;9.07;89.53;98302.13;5002561;28;19947;-65
2022/09/16 03:10:52;;;;;;;0.10;0.10;;;;;;;9.08;89.30;98301.00;5004829;28;20442;-67
2022/09/16 03:13:27;;;;;;;0.10;0.10;;;;;;;9.14;89.50;98299.00;4968450;28;20046;-66
2022/09/16 03:16:06;;;;;;;0.10;0.10;;;;;;;9.20;89.15;98297.78;5001594;28;20112;-66
2022/09/16 03:18:50;;;;;;;0.10;0.10;;;;;;;9.25;88.90;98296.06;5002115;28;20096;-65
2022/09/16 03:21:24;;;;;;;0.10;0.10;;;;;;;9.29;88.91;98297.09;5004130;28;20308;-65
2022/09/16 03:23:58;;;;;;;0.10;0.10;;;;;;;9.31;88.37;98301.13;5004579;28;20137;-65
2022/09/16 03:26:34;;;;;;;0.10;0.10;;;;;;;9.33;88.21;98288.00;5003641;28;20041;-64
2022/09/16 03:29:11;;;;;;;0.10;0.10;;;;;;;9.35;88.32;98291.22;4986165;28;20069;-65
2022/09/16 03:31:45;;;;;;;0.10;0.10;;;;;;;9.35;88.30;98293.94;5002994;28;20052;-64
2022/09/16 03:34:16;;;;;;;0.10;0.10;;;;;;;9.36;88.28;98292.00;5003242;28;20054;-66
2022/09/16 03:36:47;;;;;;;0.10;0.10;;;;;;;9.35;88.02;98291.22;4986303;28;20505;-65
2022/09/16 03:39:13;;;;;;;0.10;0.10;;;;;;;9.38;87.94;98278.09;5003664;28;20049;-65
2022/09/16 03:41:39;;;;;;;0.10;0.10;;;;;;;9.38;87.95;98281.63;5002186;28;20489;-64
2022/09/16 03:44:05;;;;;;;0.10;0.10;;;;;;;9.41;87.88;98280.19;5001303;28;20553;-64
2022/09/16 03:46:31;;;;;;;0.10;0.10;;;;;;;9.44;87.67;98279.59;5002359;28;20060;-65
2022/09/16 03:48:58;;;;;;;0.10;0.10;;;;;;;9.50;87.78;98290.09;5003085;28;20056;-67
2022/09/16 03:51:26;;;;;;;0.10;0.10;;;;;;;9.56;87.40;98298.19;4985542;28;20081;-65
2022/09/16 03:53:53;;;;;;;0.10;0.10;;;;;;;9.59;87.26;98300.31;5000806;28;20134;-65
2022/09/16 03:56:23;;;;;;;0.17;0.17;;;;;;;9.66;87.27;98295.22;5005525;28;20142;-64
2022/09/16 03:58:52;;;;;;;0.10;0.10;;;;;;;9.73;86.71;98292.09;4960824;28;20049;-66
2022/09/16 04:01:21;;;;;;;0.10;0.10;;;;;;;9.76;86.40;98292.28;4974506;28;20639;-66
2022/09/16 04:03:47;;;;;;;0.10;0.10;;;;;;;9.81;86.28;98293.28;4953292;28;20056;-65
2022/09/16 04:06:14;;;;;;;0.20;0.20;;;;;;;9.82;86.01;98297.63;5006719;28;20054;-64
2022/09/16 04:08:43;;;;;;;0.10;0.10;;;;;;;9.86;85.93;98301.38;5007373;28;20093;-64
2022/09/16 04:11:09;;;;;;;0.10;0.10;;;;;;;9.84;85.88;98300.88;5002713;28;20046;-64
2022/09/16 04:13:35;;;;;;;0.10;0.10;;;;;;;9.84;85.85;98309.06;5002164;28;20054;-64
2022/09/16 04:16:03;;;;;;;0.10;0.10;;;;;;;9.82;85.74;98314.00;5003102;28;20600;-65
2022/09/16 04:18:29;;;;;;;0.10;0.10;;;;;;;9.79;85.68;98302.59;5002618;28;20048;-64
2022/09/16 04:20:56;;;;;;;0.10;0.10;;;;;;;9.83;85.90;98310.16;5004858;28;20050;-65
2022/09/16 04:23:22;;;;;;;0.10;0.10;;;;;;;9.91;85.75;98314.91;5003525;28;20078;-64
2022/09/16 04:25:54;;;;;;;0.10;0.10;;;;;;;9.92;85.44;98309.16;5008741;28;20053;-65
2022/09/16 04:28:20;;;;;;;0.10;0.10;;;;;;;9.91;85.09;98306.72;5008213;28;20428;-65
2022/09/16 04:30:46;;;;;;;0.20;0.20;;;;;;;9.84;85.27;98304.41;5010387;28;20073;-64
2022/09/16 04:33:12;;;;;;;0.10;0.10;;;;;;;9.84;85.30;98298.94;4989318;28;20450;-64
2022/09/16 04:35:38;;;;;;;0.63;0.20;;;;;;;9.89;85.20;98300.75;4988960;28;20583;-64
2022/09/16 04:38:04;;;;;;;0.10;0.10;;;;;;;9.87;85.07;98309.25;5008325;28;20085;-64
2022/09/16 04:40:30;;;;;;;0.10;0.10;;;;;;;9.85;85.23;98305.22;4985080;28;20057;-65
2022/09/16 04:42:57;;;;;;;0.10;0.10;;;;;;;9.89;85.18;98298.03;5006079;28;20054;-64
2022/09/16 04:45:23;;;;;;;0.20;0.20;;;;;;;9.96;85.22;98300.34;5007979;28;20046;-64
2022/09/16 04:47:55;;;;;;;0.17;0.17;;;;;;;9.97;84.71;98286.38;4987266;28;20473;-64
2022/09/16 04:50:21;;;;;;;0.10;0.10;;;;;;;10.03;84.96;98290.63;5004793;28;20072;-64
2022/09/16 04:52:47;;;;;;;0.10;0.10;;;;;;;10.16;84.65;98290.88;5007069;28;20041;-64
2022/09/16 04:55:13;;;;;;;0.13;0.13;;;;;;;10.29;84.37;98284.53;5004370;28;20464;-64
2022/09/16 04:57:39;;;;;;;0.10;0.10;;;;;;;10.34;83.57;98281.69;5007909;28;20080;-64
2022/09/16 05:00:08;;;;;;;0.20;0.20;;;;;;;10.31;83.60;98290.53;4993634;28;20144;-67
2022/09/16 05:02:34;;;;;;;0.10;0.10;;;;;;;10.30;83.50;98280.72;5004618;28;20104;-66
2022/09/16 05:05:00;;;;;;;0.20;0.20;;;;;;;10.26;83.76;98276.16;5004382;28;20092;-66
2022/09/16 05:07:27;;;;;;;0.32;0.10;;;;;;;10.30;83.47;98279.88;4987795;28;20141;-66
2022/09/16 05:09:53;;;;;;;0.20;0.20;;;;;;;10.31;83.50;98278.78;5002965;28;20058;-66
2022/09/16 05:12:19;;;;;;;0.15;0.15;;;;;;;10.12;83.78;98259.81;5004896;28;20371;-68
2022/09/16 05:14:45;;;;;;;0.38;0.22;;;;;;;10.23;83.99;98280.31;5006020;28;20045;-67
2022/09/16 05:17:12;;;;;;;0.20;0.20;;;;;;;10.26;84.12;98278.91;5006312;28;20074;-65
2022/09/16 05:19:38;;;;;;;0.10;0.10;;;;;;;10.26;84.16;98276.97;5013969;28;20103;-67
2022/09/16 05:22:06;;;;;;;0.10;0.10;;;;;;;10.30;84.08;98277.16;5001818;28;20103;-67
2022/09/16 05:24:33;;;;;;;0.20;0.20;;;;;;;10.34;83.89;98276.22;4993536;28;20375;-67
2022/09/16 05:26:59;;;;;;;0.20;0.10;;;;;;;10.41;83.79;98280.47;5003928;28;20092;-67
2022/09/16 05:29:25;;;;;;;0.20;0.20;;;;;;;10.43;83.84;98275.50;4983757;28;20046;-67
2022/09/16 05:31:51;;;;;;;0.20;0.20;;;;;;;10.42;83.79;98261.06;5013420;28;20073;-67
2022/09/16 05:34:20;;;;;;;0.20;0.20;;;;;;;10.42;84.05;98263.78;5011968;28;20049;-67
2022/09/16 05:36:47;;;;;;;0.10;0.10;;;;;;;10.41;84.31;98262.16;5008963;28;20140;-67
2022/09/16 05:39:16;;;;;;;0.20;0.20;;;;;;;10.46;84.19;98267.50;4990031;28;20547;-67
2022/09/16 05:41:41;;;;;;;0.10;0.10;;;;;;;10.52;84.01;98267.34;4985040;28;20081;-65
2022/09/16 05:44:07;;;;;;;0.10;0.10;;;;;;;10.54;83.89;98267.88;5002870;28;20065;-65
2022/09/16 05:46:34;;;;;;;0.25;0.25;;;;;;;10.54;83.89;98259.69;5004520;28;20389;-65
2022/09/16 05:49:01;;;;;;;0.20;0.20;;;;;;;10.52;84.24;98259.97;5002434;28;20396;-64
2022/09/16 05:51:28;;;;;;;0.20;0.20;;;;;;;10.57;84.24;98254.38;5009292;28;20509;-64
2022/09/16 05:53:55;;;;;;;0.20;0.20;;;;;;;10.64;84.07;98249.28;5001957;28;20237;-66
2022/09/16 05:56:24;;;;;;;0.22;0.22;;;;;;;10.70;83.84;98249.16;5005687;28;20120;-67
2022/09/16 05:58:52;;;;;;;0.50;0.20;;;;;;;10.71;84.00;98248.03;5004320;28;20053;-65
2022/09/16 06:01:20;;;;;;;0.20;0.20;;;;;;;10.78;83.77;98248.41;4984059;28;20436;-65
2022/09/16 06:03:47;;;;;;;0.20;0.20;;;;;;;10.85;83.73;98245.19;4999212;28;20501;-64
2022/09/16 06:06:19;;;;;;;0.25;0.20;;;;;;;10.98;83.46;98247.03;4987059;28;20045;-64
2022/09/16 06:08:46;;;;;;;0.20;0.20;;;;;;;11.08;83.26;98254.13;5006196;28;20049;-65
2022/09/16 06:11:12;;;;;;;0.20;0.20;;;;;;;11.26;82.90;98251.47;5004282;28;20050;-64
2022/09/16 06:13:39;;;;;;;0.43;0.20;;;;;;;11.37;82.38;98257.47;5003438;28;20421;-64
2022/09/16 06:16:07;;;;;;;0.20;0.20;;;;;;;11.37;82.09;98243.78;4988270;28;20068;-65
2022/09/16 06:18:35;;;;;;;0.20;0.20;;;;;;;11.42;81.97;98244.44;4989471;28;20056;-65
2022/09/16 06:21:03;;;;;;;0.28;0.28;;;;;;;11.40;82.26;98230.28;4985564;28;20049;-64
2022/09/16 06:23:29;;;;;;;0.20;0.20;;;;;;;11.42;82.49;98241.72;4972094;28;20045;-64
2022/09/16 06:26:01;;;;;;;0.10;0.10;;;;;;;11.43;82.72;98237.03;5006591;28;20050;-64
2022/09/16 06:28:27;;;;;;;0.20;0.20;;;;;;;11.41;82.51;98231.06;5008496;28;20520;-64
2022/09/16 06:31:01;;;;;;;0.10;0.10;;;;;;;11.43;82.67;98232.38;4974383;28;20732;-64
2022/09/16 06:33:27;;;;;;;0.20;0.20;;;;;;;11.41;82.60;98231.88;4975880;28;20323;-65
2022/09/16 06:35:53;;;;;;;0.20;0.20;;;;;;;11.46;82.76;98239.13;5007097;28;20057;-64
2022/09/16 06:38:19;;;;;;;0.10;0.10;;;;;;;11.54;82.51;98232.06;4990471;28;20045;-64
2022/09/16 06:40:45;;;;;;;0.10;0.10;;;;;;;11.53;82.47;98224.97;5009374;28;20049;-64
2022/09/16 06:43:13;;;;;;;0.20;0.20;;;;;;;11.65;82.30;98221.63;4991046;28;20513;-65
2022/09/16 06:45:38;;;;;;;;;;;;;;;11.79;81.82;98222.28;4989849;28;20049;-64
2022/09/16 06:48:05;;;;;;;0.20;0.20;;;;;;;11.89;81.43;98223.88;4972778;28;19925;-66
2022/09/16 06:50:31;;;;;;;0.20;0.20;;;;;;;11.96;81.33;98221.47;5007963;28;20113;-64
2022/09/16 06:52:57;;;;;;;0.20;0.20;;;;;;;12.07;81.08;98216.47;4988411;28;20038;-64
2022/09/16 06:55:23;;;;;;;0.40;0.40;;;;;;;12.29;80.43;98231.94;4988210;28;20524;-65
2022/09/16 06:57:50;;;;;;;0.20;0.20;;;;;;;12.43;79.89;98225.47;5007683;28;20046;-65
2022/09/16 07:00:17;;;;;;;0.20;0.20;;;;;;;12.62;79.41;98216.88;4990871;28;20061;-65
2022/09/16 07:02:43;;;;;;;0.30;0.30;;;;;;;12.90;78.14;98219.22;4990863;28;20164;-64
2022/09/16 07:05:10;;;;;;;0.30;0.30;;;;;;;13.01;77.96;98214.94;5008293;28;20038;-65
2022/09/16 07:07:38;;;;;;;0.20;0.20;;;;;;;13.10;77.55;98214.91;5007911;28;20076;-65
2022/09/16 07:10:05;;;;;;;0.20;0.20;;;;;;;13.22;76.98;98210.66;5007891;28;20054;-65
2022/09/16 07:12:31;;;;;;;0.30;0.30;;;;;;;13.40;76.33;98216.88;4986948;28;20056;-65
2022/09/16 07:14:57;;;;;;;0.30;0.30;;;;;;;13.32;76.48;98218.53;5005024;28;20042;-65
2022/09/16 07:17:26;;;;;;;0.30;0.30;;;;;;;13.33;76.58;98220.91;5005787;28;20110;-64
2022/09/16 07:19:52;;;;;;;0.30;0.30;;;;;;;13.39;76.58;98223.50;4987301;28;20065;-65
2022/09/16 07:22:18;;;;;;;0.30;0.30;;;;;;;13.63;75.77;98195.41;4973984;28;20066;-64
2022/09/16 07:24:45;;;;;;;0.40;0.40;;;;;;;14.07;74.38;98214.28;5006933;28;20496;-65
2022/09/16 07:27:10;;;;;;;0.80;0.37;;;;;;;14.16;73.47;98203.22;5007241;28;20134;-65
2022/09/16 07:29:36;;;;;;;0.30;0.30;;;;;;;14.23;73.60;98203.50;4972687;28;20151;-65
2022/09/16 07:32:02;;;;;;;0.30;0.30;;;;;;;14.42;72.84;98205.69;5006708;28;20050;-65
2022/09/16 07:34:30;;;;;;;0.30;0.30;;;;;;;14.74;71.90;98197.78;5006733;28;20053;-64
2022/09/16 07:36:56;;;;;;;0.40;0.40;;;;;;;14.80;71.61;98190.09;4990249;28;20417;-65
2022/09/16 07:39:24;;;;;;;0.20;0.20;;;;;;;14.84;70.86;98192.97;4989492;28;20474;-64
2022/09/16 07:41:50;;;;;;;0.40;0.30;;;;;;;14.61;71.61;98198.91;5004746;28;20077;-64
2022/09/16 07:44:19;;;;;;;0.28;0.28;;;;;;;14.54;72.70;98195.88;4986460;28;20046;-65
2022/09/16 07:46:45;;;;;;;0.30;0.30;;;;;;;14.65;72.40;98188.00;5007342;28;20060;-64
2022/09/16 07:49:14;;;;;;;0.30;0.30;;;;;;;14.80;71.92;98181.06;5007805;28;20046;-66
2022/09/16 07:51:42;;;;;;;0.30;0.30;;;;;;;14.94;71.23;98173.28;4988601;28;20053;-64
2022/09/16 07:54:11;;;;;;;0.30;0.30;;;;;;;15.16;70.81;98177.53;5007251;28;20050;-65
2022/09/16 07:56:38;;;;;;;0.40;0.40;;;;;;;15.70;69.14;98170.06;5010665;28;20054;-65
2022/09/16 07:59:05;;;;;;;0.30;0.30;;;;;;;16.45;66.49;98165.06;4994984;28;20069;-65
2022/09/16 08:01:31;;;;;;;;;;;;;;;16.98;64.25;98155.72;5012616;28;20054;-65
2022/09/16 08:03:58;;;;;;;0.43;0.43;;;;;;;17.62;62.49;98168.59;5011300;28;20407;-65
2022/09/16 08:06:27;;;;;;;0.50;0.50;;;;;;;18.51;59.23;98162.47;5008756;28;20060;-65
2022/09/16 08:08:56;;;;;;;0.40;0.40;;;;;;;18.91;57.23;98154.81;5009290;28;20551;-65
2022/09/16 08:11:22;;;;;;;0.30;0.30;;;;;;;18.43;58.37;98147.69;5009087;28;20054;-65
2022/09/16 08:13:49;;;;;;;0.30;0.30;;;;;;;17.49;60.47;98151.38;5009189;28;20050;-65
2022/09/16 08:16:17;;;;;;;0.30;0.30;;;;;;;16.68;63.36;98145.16;4991755;28;20049;-65
2022/09/16 08:18:44;;;;;;;0.30;0.30;;;;;;;16.40;64.89;98148.78;5011833;28;20038;-65
2022/09/16 08:21:14;;;;;;;0.30;0.30;;;;;;;16.39;65.03;98141.66;5010022;28;20050;-65
2022/09/16 08:23:41;;;;;;;0.32;0.32;;;;;;;16.59;64.86;98144.50;4975242;28;20049;-64
2022/09/16 08:26:09;;;;;;;0.40;0.40;;;;;;;17.04;63.73;98141.66;4976862;28;20547;-64
2022/09/16 08:28:37;;;;;;;0.50;0.50;;;;;;;17.77;60.64;98149.56;4993128;28;20053;-64
2022/09/16 08:31:04;;;;;;;0.40;0.40;;;;;;;18.20;58.95;98130.28;4992726;28;20057;-65
2022/09/16 08:33:30;;;;;;;0.40;0.40;;;;;;;18.26;58.76;98143.47;5008113;28;20046;-65
2022/09/16 08:35:58;;;;;;;0.40;0.40;;;;;;;18.68;57.37;98141.81;5009994;28;20046;-64
2022/09/16 08:38:24;;;;;;;0.40;0.40;;;;;;;18.65;57.18;98125.13;5010739;28;20055;-64
2022/09/16 08:40:55;;;;;;;0.40;0.40;;;;;;;18.57;57.08;98135.28;5009050;28;20065;-64
2022/09/16 08:43:30;;;;;;;0.45;0.45;;;;;;;18.62;56.76;98132.19;4990912;28;20143;-65
2022/09/16 08:46:03;;;;;;;0.40;0.40;;;;;;;18.49;57.31;98131.59;4991480;28;20049;-65
2022/09/16 08:48:44;;;;;;;0.40;0.40;;;;;;;18.66;57.66;98133.06;5008406;28;20514;-65
2022/09/16 08:51:15;;;;;;;0.30;0.30;;;;;;;18.81;56.47;98123.03;5009059;28;20069;-64
2022/09/16 08:53:46;;;;;;;0.40;0.40;;;;;;;18.57;57.44;98126.97;5010383;28;20057;-65
2022/09/16 08:56:17;;;;;;;0.40;0.40;;;;;;;18.36;57.13;98127.41;4990702;28;20053;-64
2022/09/16 08:58:48;;;;;;;0.40;0.40;;;;;;;18.33;57.56;98126.16;4993128;28;20050;-67
2022/09/16 09:01:19;;;;;;;0.30;0.30;;;;;;;18.12;57.69;98129.34;5010683;28;20081;-65
2022/09/16 09:03:47;;;;;;;0.30;0.30;;;;;;;17.54;58.98;98084.75;5008713;28;20050;-64
2022/09/16 09:06:26;;;;;;;0.30;0.30;;;;;;;17.46;60.12;98124.47;4991615;28;20137;-65
2022/09/16 09:09:01;;;;;;;0.47;0.30;;;;;;;17.24;60.76;98137.78;4991896;28;20512;-65
2022/09/16 09:11:33;;;;;;;0.40;0.40;;;;;;;17.06;61.17;98115.31;5009568;28;20045;-65
2022/09/16 09:14:26;;;;;;;0.47;0.30;;;;;;;16.85;61.88;98119.13;5008493;28;20537;-65
2022/09/16 09:16:58;;;;;;;0.30;0.30;;;;;;;16.63;62.69;98125.28;4991079;28;20116;-64
2022/09/16 09:19:37;;;;;;;0.35;0.30;;;;;;;16.43;63.39;98130.72;5010254;28;20096;-65
2022/09/16 09:22:16;;;;;;;0.30;0.30;;;;;;;16.28;64.54;98138.63;4990585;28;20054;-65
2022/09/16 09:24:55;;;;;;;0.30;0.30;;;;;;;16.24;64.65;98120.38;5009697;28;20064;-65
2022/09/16 09:27:27;;;;;;;0.30;0.30;;;;;;;16.25;64.74;98125.53;4987311;28;20100;-67
2022/09/16 09:30:08;;;;;;;0.30;0.30;;;;;;;16.22;65.37;98120.72;5007643;28;20173;-67
2022/09/16 09:32:52;;;;;;;0.40;0.40;;;;;;;16.31;65.32;98117.78;4989542;28;20612;-66
2022/09/16 09:35:29;;;;;;;0.30;0.30;;;;;;;16.57;64.96;98114.53;4991213;28;20045;-66
2022/09/16 09:38:15;;;;;;;0.30;0.30;;;;;;;16.85;64.35;98110.06;4988944;28;20046;-66
2022/09/16 09:40:46;;;;;;;0.40;0.40;;;;;;;17.12;63.52;98111.09;5006875;28;20058;-67
2022/09/16 09:43:17;;;;;;;0.40;0.40;;;;;;;17.52;62.21;98106.44;4993103;28;20042;-67
2022/09/16 09:45:55;;;;;;;0.40;0.40;;;;;;;17.88;61.03;98103.59;5009159;28;20097;-67
2022/09/16 09:48:25;;;;;;;0.40;0.40;;;;;;;18.09;60.45;98096.88;5010024;28;20042;-67
2022/09/16 09:50:52;;;;;;;0.40;0.40;;;;;;;18.28;59.58;98096.06;4991589;28;20061;-67
2022/09/16 09:53:24;;;;;;;0.40;0.40;;;;;;;18.40;59.66;98092.28;4991039;28;20100;-67
2022/09/16 09:55:54;;;;;;;0.32;0.32;;;;;;;18.28;59.58;98087.75;5009811;28;20037;-67
2022/09/16 09:58:25;;;;;;;0.35;0.35;;;;;;;18.02;59.44;98094.78;5009216;28;20404;-67
2022/09/16 10:00:56;;;;;;;0.30;0.30;;;;;;;17.68;58.32;98109.13;4977555;28;20053;-66
2022/09/16 10:03:23;;;;;;;0.40;0.40;;;;;;;17.34;58.24;98103.31;5007633;28;20050;-67
2022/09/16 10:05:49;;;;;;;0.30;0.30;;;;;;;17.19;58.87;98096.66;5007631;28;20136;-67
2022/09/16 10:08:22;;;;;;;0.30;0.30;;;;;;;17.17;59.73;98081.59;4988085;28;20136;-67
2022/09/16 10:10:51;;;;;;;0.30;0.30;;;;;;;17.18;59.18;98089.53;4990520;28;20069;-67
2022/09/16 10:13:18;;;;;;;0.30;0.30;;;;;;;17.11;59.30;98100.44;5009052;28;20124;-67
2022/09/16 10:15:45;;;;;;;0.30;0.30;;;;;;;17.05;59.39;98094.38;5007079;28;20050;-67
2022/09/16 10:18:22;;;;;;;0.30;0.30;;;;;;;17.03;59.59;98076.56;5006831;28;20474;-67
2022/09/16 10:20:59;;;;;;;0.30;0.30;;;;;;;16.99;59.42;98084.75;5006485;28;20053;-67
2022/09/16 10:23:25;;;;;;;;;;;;;;;16.85;59.69;98063.94;5007586;28;20104;-67
2022/09/16 10:26:04;;;;;;;0.30;0.30;;;;;;;16.73;59.99;98067.59;4989634;28;19983;-67
2022/09/16 10:28:30;;;;;;;0.30;0.30;;;;;;;16.66;60.51;98069.38;4985170;28;20425;-67
2022/09/16 10:30:57;;;;;;;0.30;0.30;;;;;;;16.76;60.29;98076.31;4987438;28;20045;-67
2022/09/16 10:33:27;;;;;;;;;;;;;;;16.90;60.40;98056.53;5008362;28;20062;-67
2022/09/16 10:35:57;;;;;;;0.40;0.40;;;;;;;17.11;59.90;98051.53;5008326;28;19936;-66
2022/09/16 10:38:26;;;;;;;0.30;0.30;;;;;;;17.35;59.11;98046.91;4990127;28;20509;-67
2022/09/16 10:40:53;;;;;;;0.30;0.30;;;;;;;17.45;58.70;98045.50;5008603;28;20056;-67
2022/09/16 10:43:24;;;;;;;0.30;0.30;;;;;;;17.49;58.66;98040.84;5007646;28;20473;-65
2022/09/16 10:45:52;;;;;;;0.30;0.30;;;;;;;17.48;58.45;98038.44;5007740;28;20053;-67
2022/09/16 10:48:20;;;;;;;0.30;0.30;;;;;;;17.57;58.52;98042.59;4988952;28;20045;-67
2022/09/16 10:50:54;;;;;;;0.30;0.30;;;;;;;17.50;58.64;98036.94;5007502;28;20061;-67
2022/09/16 10:53:22;;;;;;;0.30;0.30;;;;;;;17.35;58.99;98043.31;5008645;28;20233;-67
2022/09/16 10:55:56;;;;;;;0.30;0.30;;;;;;;17.25;59.70;98047.47;4990468;28;20077;-67
2022/09/16 10:58:23;;;;;;;0.30;0.30;;;;;;;17.13;60.12;98038.16;5007222;28;20540;-70
2022/09/16 11:01:06;;;;;;;0.30;0.30;;;;;;;16.93;60.20;98036.50;5008146;28;20410;-66
2022/09/16 11:04:05;;;;;;;0.30;0.30;;;;;;;16.79;60.43;98042.50;4990794;28;20402;-67
2022/09/16 11:06:48;;;;;;;0.30;0.30;;;;;;;16.74;60.40;98043.59;4992259;28;20041;-67
2022/09/16 11:09:20;;;;;;;0.20;0.20;;;;;;;16.61;59.66;98012.53;5005091;28;20057;-66
2022/09/16 11:12:00;;;;;;;0.30;0.30;;;;;;;16.55;59.65;98023.06;5006496;28;20054;-67
2022/09/16 11:14:41;;;;;;;0.30;0.30;;;;;;;16.59;59.03;98026.69;4990426;28;20053;-67
2022/09/16 11:17:24;;;;;;;0.40;0.30;;;;;;;16.64;59.62;98019.28;5007928;28;20061;-66
2022/09/16 11:20:11;;;;;;;0.28;0.28;;;;;;;16.71;58.91;98019.47;5008306;28;20056;-67
2022/09/16 11:22:46;;;;;;;0.20;0.20;;;;;;;16.71;58.45;98030.50;5006913;28;20132;-66
2022/09/16 11:25:43;;;;;;;0.30;0.30;;;;;;;16.64;58.73;97998.03;4988347;28;20050;-67
2022/09/16 11:28:31;;;;;;;0.30;0.30;;;;;;;16.68;59.22;97998.09;5004157;28;20058;-67
2022/09/16 11:31:06;;;;;;;0.75;0.35;;;;;;;16.52;59.20;97998.94;5007158;28;20042;-66
2022/09/16 11:33:39;;;;;;;0.30;0.30;;;;;;;16.41;60.37;97998.69;5007171;28;20050;-67
2022/09/16 11:36:22;;;;;;;0.30;0.30;;;;;;;16.35;60.74;98007.59;5008379;28;20058;-66
2022/09/16 11:39:02;;;;;;;0.22;0.22;;;;;;;16.28;61.31;98016.47;5006282;28;20095;-67
2022/09/16 11:41:33;;;;;;;0.20;0.20;;;;;;;16.20;61.68;98009.22;5007990;28;20074;-66
2022/09/16 11:44:15;;;;;;;0.30;0.30;;;;;;;16.11;62.01;98004.66;4989453;28;20576;-66
2022/09/16 11:46:52;;;;;;;0.20;0.20;;;;;;;16.01;62.44;97994.97;4971375;28;20499;-66
2022/09/16 11:49:27;;;;;;;;;;;;;;;16.01;63.01;97996.94;5005148;28;20053;-67
2022/09/16 11:52:07;;;;;;;0.20;0.20;;;;;;;15.96;63.08;97992.50;4987500;28;19929;-66
2022/09/16 11:55:05;;;;;;;0.20;0.20;;;;;;;15.93;63.75;97987.69;4984321;28;20373;-67